createdAt,value
2023-01-10T00:01:40.628Z,4.07
2023-01-10T00:04:07.046Z,2.88
2023-01-10T00:06:33.482Z,2.90
2023-01-10T00:09:00.166Z,4.03
2023-01-10T00:11:45.077Z,3.30
2023-01-10T00:14:12.177Z,2.88
2023-01-10T00:16:39.505Z,2.83
2023-01-10T00:19:07.159Z,2.45
2023-01-10T00:21:34.144Z,2.85
2023-01-10T00:24:19.258Z,2.53
2023-01-10T00:26:56.078Z,2.53
2023-01-10T00:29:26.369Z,2.10
2023-01-10T00:31:52.771Z,2.10
2023-01-10T00:34:19.372Z,2.33
2023-01-10T00:36:47.973Z,2.45
2023-01-10T00:39:15.810Z,2.10
2023-01-10T00:42:01.096Z,2.20
2023-01-10T00:44:27.492Z,2.25
2023-01-10T00:46:54.487Z,2.08
2023-01-10T00:49:20.880Z,2.70
2023-01-10T00:51:47.305Z,2.50
2023-01-10T00:54:15.274Z,2.50
2023-01-10T00:56:41.712Z,2.20
2023-01-10T00:59:08.836Z,2.22
2023-01-10T01:01:35.422Z,1.80
2023-01-10T01:04:01.953Z,1.77
2023-01-10T01:06:28.656Z,1.90
2023-01-10T01:08:55.057Z,2.42
2023-01-10T01:11:21.549Z,2.10
2023-01-10T01:13:47.931Z,1.73
2023-01-10T01:16:14.419Z,2.05
2023-01-10T01:18:40.855Z,1.90
2023-01-10T01:21:10.280Z,2.00
2023-01-10T01:23:36.669Z,1.80
2023-01-10T01:26:03.099Z,1.75
2023-01-10T01:28:29.519Z,2.40
2023-01-10T01:30:56.111Z,1.50
2023-01-10T01:33:22.710Z,1.42
2023-01-10T01:35:49.921Z,1.60
2023-01-10T01:38:16.763Z,1.80
2023-01-10T01:40:43.479Z,1.60
2023-01-10T01:43:25.769Z,1.92
2023-01-10T01:45:53.460Z,2.10
2023-01-10T01:51:13.704Z,1.83
2023-01-10T01:53:45.031Z,1.20
2023-01-10T01:56:45.573Z,1.88
2023-01-10T01:59:20.541Z,1.95
2023-01-10T02:01:50.730Z,2.15
2023-01-10T02:04:22.588Z,1.45
2023-01-10T02:06:52.385Z,1.55
2023-01-10T02:09:27.020Z,1.48
2023-01-10T02:11:54.778Z,1.73
2023-01-10T02:14:23.536Z,1.50
2023-01-10T02:16:49.961Z,1.58
2023-01-10T02:19:36.693Z,2.63
2023-01-10T02:22:25.535Z,1.42
2023-01-10T02:24:57.752Z,1.67
2023-01-10T02:28:00.168Z,1.60
2023-01-10T02:30:41.648Z,1.50
2023-01-10T02:33:29.791Z,1.67
2023-01-10T02:36:30.049Z,1.88
2023-01-10T02:39:12.155Z,1.48
2023-01-10T02:41:59.311Z,1.70
2023-01-10T02:44:34.604Z,1.48
2023-01-10T02:47:03.849Z,1.60
2023-01-10T02:49:30.399Z,1.85
2023-01-10T02:51:57.663Z,2.00
2023-01-10T02:54:31.205Z,1.67
2023-01-10T02:57:20.924Z,1.73
2023-01-10T03:00:07.430Z,1.88
2023-01-10T03:02:41.971Z,1.52
2023-01-10T03:05:37.958Z,2.13
2023-01-10T03:08:46.612Z,1.95
2023-01-10T03:11:13.073Z,1.38
2023-01-10T03:13:46.651Z,1.50
2023-01-10T03:16:17.219Z,1.80
2023-01-10T03:18:51.116Z,1.92
2023-01-10T03:21:20.569Z,1.48
2023-01-10T03:23:50.668Z,1.60
2023-01-10T03:26:25.098Z,2.00
2023-01-10T03:28:58.344Z,1.45
2023-01-10T03:31:38.348Z,1.48
2023-01-10T03:34:04.804Z,1.48
2023-01-10T03:36:41.393Z,1.50
2023-01-10T03:39:19.840Z,1.10
2023-01-10T03:42:23.097Z,1.75
2023-01-10T03:45:04.896Z,1.88
2023-01-10T03:47:46.545Z,1.52
2023-01-10T03:50:18.318Z,1.58
2023-01-10T03:52:45.380Z,2.25
2023-01-10T03:55:15.118Z,1.98
2023-01-10T03:57:43.173Z,1.75
2023-01-10T04:00:10.221Z,2.53
2023-01-10T04:02:36.735Z,1.88
2023-01-10T04:05:03.798Z,2.00
2023-01-10T04:07:30.239Z,2.38
2023-01-10T04:09:57.112Z,1.70
2023-01-10T04:12:23.816Z,1.90
2023-01-10T04:14:50.334Z,2.03
2023-01-10T04:17:17.873Z,1.73
2023-01-10T04:19:44.507Z,1.90
2023-01-10T04:22:11.876Z,1.70
2023-01-10T04:24:40.315Z,2.08
2023-01-10T04:27:06.871Z,2.05
2023-01-10T04:29:33.327Z,2.10
2023-01-10T04:32:01.091Z,1.90
2023-01-10T04:34:27.703Z,2.00
2023-01-10T04:36:54.159Z,2.00
2023-01-10T04:39:20.975Z,1.80
2023-01-10T04:41:47.403Z,2.20
2023-01-10T04:44:13.825Z,1.50
2023-01-10T04:46:40.242Z,2.10
2023-01-10T04:49:07.357Z,1.88
2023-01-10T04:51:33.762Z,1.60
2023-01-10T04:54:00.193Z,1.73
2023-01-10T04:56:26.826Z,2.28
2023-01-10T04:58:54.226Z,1.90
2023-01-10T05:01:26.546Z,1.98
2023-01-10T05:03:56.062Z,2.17
2023-01-10T05:06:24.084Z,2.10
2023-01-10T05:08:50.843Z,2.13
2023-01-10T05:11:17.552Z,1.80
2023-01-10T05:13:44.016Z,1.98
2023-01-10T05:16:10.548Z,1.83
2023-01-10T05:18:36.998Z,2.20
2023-01-10T05:21:11.975Z,2.25
2023-01-10T05:23:39.581Z,2.40
2023-01-10T05:26:15.151Z,2.42
2023-01-10T05:28:42.362Z,2.30
2023-01-10T05:31:12.208Z,2.45
2023-01-10T05:33:38.796Z,2.20
2023-01-10T05:36:06.837Z,2.00
2023-01-10T05:38:33.845Z,2.17
2023-01-10T05:41:00.782Z,2.33
2023-01-10T05:43:28.216Z,2.60
2023-01-10T05:45:55.786Z,2.35
2023-01-10T05:48:22.452Z,2.28
2023-01-10T05:50:52.677Z,2.55
2023-01-10T05:53:20.021Z,2.17
2023-01-10T05:56:12.698Z,2.40
2023-01-10T05:58:39.104Z,1.92
2023-01-10T06:01:08.450Z,2.80
2023-01-10T06:03:35.099Z,2.20
2023-01-10T06:06:03.387Z,2.17
2023-01-10T06:08:30.069Z,2.65
2023-01-10T06:10:56.512Z,2.30
2023-01-10T06:13:23.688Z,2.60
2023-01-10T06:15:50.734Z,2.50
2023-01-10T06:18:17.206Z,2.70
2023-01-10T06:20:43.927Z,2.80
2023-01-10T06:23:10.447Z,2.50
2023-01-10T06:25:40.328Z,1.90
2023-01-10T06:28:09.030Z,2.40
2023-01-10T06:30:35.441Z,2.45
2023-01-10T06:33:06.188Z,2.35
2023-01-10T06:35:33.419Z,2.50
2023-01-10T06:37:59.909Z,2.05
2023-01-10T06:40:26.939Z,2.38
2023-01-10T06:42:53.412Z,2.05
2023-01-10T06:45:19.985Z,1.92
2023-01-10T06:47:46.608Z,2.47
2023-01-10T06:50:13.796Z,2.00
2023-01-10T06:52:40.809Z,2.70
2023-01-10T06:55:11.337Z,2.38
2023-01-10T06:57:38.520Z,2.28
2023-01-10T07:00:07.912Z,2.15
2023-01-10T07:02:34.351Z,2.25
2023-01-10T07:05:00.791Z,2.30
2023-01-10T07:07:27.229Z,2.22
2023-01-10T07:09:53.649Z,2.58
2023-01-10T07:12:20.073Z,3.05
2023-01-10T07:14:46.479Z,2.15
2023-01-10T07:17:12.905Z,2.10
2023-01-10T07:19:40.555Z,2.40
2023-01-10T07:22:06.991Z,2.13
2023-01-10T07:24:34.324Z,2.95
2023-01-10T07:27:00.740Z,3.28
2023-01-10T07:29:27.133Z,2.38
2023-01-10T07:31:53.939Z,2.10
2023-01-10T07:34:20.353Z,2.03
2023-01-10T07:36:46.776Z,2.80
2023-01-10T07:39:13.407Z,2.53
2023-01-10T07:41:39.899Z,2.50
2023-01-10T07:44:06.429Z,2.45
2023-01-10T07:46:33.091Z,2.60
2023-01-10T07:48:59.585Z,2.95
2023-01-10T07:51:26.000Z,2.28
2023-01-10T07:53:52.451Z,2.80
2023-01-10T07:56:18.884Z,2.63
2023-01-10T07:58:47.489Z,3.17
2023-01-10T08:01:14.001Z,3.20
2023-01-10T08:03:40.559Z,4.03
2023-01-10T08:06:12.143Z,3.58
2023-01-10T08:08:39.030Z,4.30
2023-01-10T08:11:05.991Z,3.72
2023-01-10T08:13:34.522Z,3.13
2023-01-10T08:16:06.416Z,2.78
2023-01-10T08:18:33.286Z,2.85
2023-01-10T08:21:00.911Z,2.63
2023-01-10T08:23:27.541Z,2.88
2023-01-10T08:25:55.183Z,3.15
2023-01-10T08:28:21.624Z,2.78
2023-01-10T08:30:50.387Z,2.90
2023-01-10T08:33:17.041Z,3.42
2023-01-10T08:35:43.884Z,3.15
2023-01-10T08:38:11.681Z,2.67
2023-01-10T08:40:38.975Z,2.97
2023-01-10T08:43:10.740Z,3.63
2023-01-10T08:45:38.097Z,3.10
2023-01-10T08:48:05.698Z,4.28
2023-01-10T08:50:32.525Z,3.00
2023-01-10T08:52:59.615Z,3.72
2023-01-10T08:55:26.436Z,3.95
2023-01-10T08:57:53.277Z,3.75
2023-01-10T09:00:20.040Z,3.40
2023-01-10T09:02:46.685Z,3.58
2023-01-10T09:05:26.266Z,3.50
2023-01-10T09:07:57.585Z,3.47
2023-01-10T09:10:24.033Z,3.88
2023-01-10T09:12:56.257Z,3.72
2023-01-10T09:15:24.335Z,3.45
2023-01-10T09:17:54.774Z,3.13
2023-01-10T09:20:21.755Z,3.20
2023-01-10T09:22:48.226Z,3.53
2023-01-10T09:25:14.785Z,2.75
2023-01-10T09:27:41.447Z,2.95
2023-01-10T09:30:08.567Z,2.60
2023-01-10T09:32:35.055Z,2.42
2023-01-10T09:35:01.551Z,2.65
2023-01-10T09:37:28.000Z,2.50
2023-01-10T09:39:54.405Z,2.13
2023-01-10T09:42:45.237Z,2.42
2023-01-10T09:45:30.461Z,3.20
2023-01-10T09:48:05.624Z,2.97
2023-01-10T09:50:42.723Z,2.80
2023-01-10T09:53:21.365Z,2.25
2023-01-10T09:55:55.044Z,2.80
2023-01-10T10:00:56.639Z,2.88
2023-01-10T10:03:31.512Z,2.08
2023-01-10T10:06:10.912Z,2.42
2023-01-10T10:08:40.431Z,2.83
2023-01-10T10:11:25.289Z,2.83
2023-01-10T10:13:58.643Z,2.85
2023-01-10T10:16:54.019Z,3.00
2023-01-10T10:19:26.079Z,2.72
2023-01-10T10:22:11.271Z,2.60
2023-01-10T10:24:40.621Z,3.03
2023-01-10T10:27:23.920Z,2.65
2023-01-10T10:30:16.098Z,3.08
2023-01-10T10:32:54.678Z,2.55
2023-01-10T10:35:24.323Z,3.00
2023-01-10T10:37:53.493Z,1.83
2023-01-10T10:40:27.101Z,2.30
2023-01-10T10:42:56.173Z,2.60
2023-01-10T10:45:44.490Z,2.47
2023-01-10T10:48:24.172Z,2.53
2023-01-10T10:51:02.922Z,2.53
2023-01-10T10:53:31.779Z,2.40
2023-01-10T10:56:00.007Z,2.08
2023-01-10T10:58:31.111Z,3.67
2023-01-10T11:00:58.910Z,3.30
2023-01-10T11:03:42.767Z,2.35
2023-01-10T11:06:10.176Z,2.90
2023-01-10T11:08:42.068Z,2.75
2023-01-10T11:11:21.016Z,2.70
2023-01-10T11:13:51.240Z,4.25
2023-01-10T11:16:30.671Z,2.25
2023-01-10T11:19:26.819Z,2.78
2023-01-10T11:22:02.557Z,2.42
2023-01-10T11:24:39.428Z,2.17
2023-01-10T11:27:18.067Z,2.00
2023-01-10T11:29:59.193Z,2.35
2023-01-10T11:32:39.316Z,2.65
2023-01-10T11:35:22.014Z,3.35
2023-01-10T11:38:19.587Z,2.72
2023-01-10T11:41:09.456Z,2.42
2023-01-10T11:43:41.146Z,2.50
2023-01-10T11:46:16.303Z,2.10
2023-01-10T11:49:05.643Z,2.33
2023-01-10T11:51:39.662Z,2.45
2023-01-10T11:54:17.339Z,2.60
2023-01-10T11:56:54.260Z,2.58
2023-01-10T11:59:20.870Z,2.78
2023-01-10T12:02:21.879Z,1.80
2023-01-10T12:04:50.425Z,3.35
2023-01-10T12:07:19.228Z,2.90
2023-01-10T12:10:01.140Z,2.38
2023-01-10T12:12:35.250Z,2.80
2023-01-10T12:15:22.943Z,2.80
2023-01-10T12:17:50.118Z,2.95
2023-01-10T12:20:18.953Z,2.50
2023-01-10T12:23:13.408Z,5.35
2023-01-10T12:25:42.019Z,4.63
2023-01-10T12:28:21.753Z,4.35
2023-01-10T12:30:51.742Z,4.65
2023-01-10T12:33:38.785Z,4.75
2023-01-10T12:36:23.620Z,3.38
2023-01-10T12:39:14.159Z,2.97
2023-01-10T12:42:28.901Z,2.78
2023-01-10T12:47:35.200Z,2.80
2023-01-10T12:52:37.151Z,1.98
2023-01-10T12:55:03.825Z,3.40
2023-01-10T12:57:39.715Z,2.40
2023-01-10T13:00:19.103Z,3.22
2023-01-10T13:02:47.863Z,2.78
2023-01-10T13:05:23.908Z,2.35
2023-01-10T13:07:54.827Z,2.75
2023-01-10T13:10:24.566Z,2.00
2023-01-10T13:13:01.755Z,2.15
2023-01-10T13:15:41.945Z,2.85
2023-01-10T13:18:23.043Z,2.60
2023-01-10T13:21:01.875Z,2.33
2023-01-10T13:23:33.953Z,2.60
2023-01-10T13:26:05.039Z,2.05
2023-01-10T13:28:34.603Z,2.33
2023-01-10T13:31:04.565Z,2.65
2023-01-10T13:33:50.425Z,2.03
2023-01-10T13:36:25.548Z,3.45
2023-01-10T13:38:58.795Z,3.03
2023-01-10T13:42:18.465Z,3.33
2023-01-10T13:45:23.363Z,3.25
2023-01-10T13:47:54.648Z,2.60
2023-01-10T13:50:27.457Z,3.17
2023-01-10T13:53:14.917Z,2.77
2023-01-10T13:55:46.488Z,3.80
2023-01-10T13:58:15.999Z,3.50
2023-01-10T14:01:13.692Z,3.75
2023-01-10T14:03:42.852Z,3.22
2023-01-10T14:06:29.416Z,2.47
2023-01-10T14:09:04.700Z,3.20
2023-01-10T14:11:43.209Z,2.97
2023-01-10T14:14:25.761Z,3.08
2023-01-10T14:16:56.881Z,3.17
2023-01-10T14:19:32.276Z,3.00
2023-01-10T14:22:01.670Z,2.83
2023-01-10T14:24:35.711Z,3.13
2023-01-10T14:27:03.443Z,3.10
2023-01-10T14:29:33.989Z,3.25
2023-01-10T14:32:01.052Z,3.30
2023-01-10T14:34:36.762Z,3.67
2023-01-10T14:37:19.753Z,2.50
2023-01-10T14:39:48.024Z,2.65
2023-01-10T14:42:17.797Z,2.47
2023-01-10T14:45:17.045Z,3.75
2023-01-10T14:47:43.527Z,2.88
2023-01-10T14:50:27.717Z,2.95
2023-01-10T14:52:56.114Z,3.53
2023-01-10T14:55:22.690Z,3.00
2023-01-10T14:57:56.061Z,3.53
2023-01-10T15:00:30.073Z,3.17
2023-01-10T15:02:59.141Z,2.80
2023-01-10T15:05:27.682Z,2.97
2023-01-10T15:07:55.552Z,3.15
2023-01-10T15:10:30.155Z,2.60
2023-01-10T15:13:01.688Z,2.78
2023-01-10T15:15:40.383Z,3.28
2023-01-10T15:18:29.253Z,2.55
2023-01-10T15:20:57.207Z,2.47
2023-01-10T15:23:27.320Z,2.50
2023-01-10T15:25:59.499Z,2.72
2023-01-10T15:28:28.076Z,2.80
2023-01-10T15:30:55.119Z,3.55
2023-01-10T15:33:29.376Z,2.85
2023-01-10T15:35:57.860Z,3.67
2023-01-10T15:38:30.231Z,3.70
2023-01-10T15:41:02.426Z,3.38
2023-01-10T15:43:30.994Z,3.08
2023-01-10T15:45:59.511Z,2.38
2023-01-10T15:48:34.803Z,2.58
2023-01-10T15:51:14.048Z,2.28
2023-01-10T15:53:50.660Z,2.28
2023-01-10T15:56:20.966Z,3.10
2023-01-10T15:58:48.025Z,2.55
2023-01-10T16:01:15.671Z,3.00
2023-01-10T16:03:48.681Z,3.03
2023-01-10T16:06:35.875Z,2.35
2023-01-10T16:09:07.149Z,2.20
2023-01-10T16:12:09.331Z,2.40
2023-01-10T16:14:35.876Z,3.00
2023-01-10T16:17:03.864Z,2.90
2023-01-10T16:19:30.442Z,2.75
2023-01-10T16:21:58.953Z,2.40
2023-01-10T16:24:28.307Z,2.85
2023-01-10T16:26:56.625Z,2.45
2023-01-10T16:29:24.311Z,2.53
2023-01-10T16:31:52.361Z,2.15
2023-01-10T16:34:19.668Z,1.90
2023-01-10T16:36:46.426Z,2.65
2023-01-10T16:39:18.946Z,2.33
2023-01-10T16:42:05.132Z,2.42
2023-01-10T16:44:32.756Z,2.60
2023-01-10T16:46:59.576Z,2.55
2023-01-10T16:49:26.457Z,3.17
2023-01-10T16:51:53.903Z,2.55
2023-01-10T16:54:22.573Z,3.08
2023-01-10T16:56:49.460Z,2.38
2023-01-10T16:59:18.007Z,3.35
2023-01-10T17:01:48.867Z,2.85
2023-01-10T17:04:22.985Z,3.50
2023-01-10T17:06:50.144Z,3.38
2023-01-10T17:09:29.004Z,2.67
2023-01-10T17:12:02.450Z,4.47
2023-01-10T17:14:35.153Z,3.80
2023-01-10T17:17:04.840Z,2.45
2023-01-10T17:19:31.679Z,4.53
2023-01-10T17:21:58.299Z,3.60
2023-01-10T17:24:24.806Z,2.95
2023-01-10T17:26:51.509Z,2.60
2023-01-10T17:29:17.933Z,3.03
2023-01-10T17:31:44.455Z,2.92
2023-01-10T17:34:10.894Z,2.45
2023-01-10T17:36:39.544Z,3.05
2023-01-10T17:39:07.142Z,2.72
2023-01-10T17:41:33.850Z,2.97
2023-01-10T17:44:00.275Z,2.80
2023-01-10T17:46:26.930Z,3.20
2023-01-10T17:48:53.446Z,3.25
2023-01-10T17:51:19.859Z,2.80
2023-01-10T17:53:46.247Z,2.72
2023-01-10T17:56:13.214Z,2.15
2023-01-10T17:58:39.883Z,4.15
2023-01-10T18:01:06.711Z,2.47
2023-01-10T18:03:33.474Z,2.50
2023-01-10T18:05:59.836Z,3.42
2023-01-10T18:08:26.577Z,2.33
2023-01-10T18:10:59.157Z,3.20
2023-01-10T18:13:28.680Z,2.95
2023-01-10T18:15:55.044Z,3.88
2023-01-10T18:18:23.045Z,2.83
2023-01-10T18:20:50.296Z,2.58
2023-01-10T18:23:23.066Z,3.50
2023-01-10T18:25:59.991Z,3.50
2023-01-10T18:28:40.074Z,4.97
2023-01-10T18:31:09.791Z,3.15
2023-01-10T18:33:36.238Z,3.17
2023-01-10T18:36:06.947Z,2.90
2023-01-10T18:38:34.899Z,3.83
2023-01-10T18:41:01.822Z,2.88
2023-01-10T18:43:29.799Z,4.38
2023-01-10T18:46:02.156Z,3.38
2023-01-10T18:48:28.970Z,2.95
2023-01-10T18:50:58.457Z,2.83
2023-01-10T18:53:24.940Z,3.35
2023-01-10T18:55:54.172Z,3.85
2023-01-10T18:58:23.608Z,3.05
2023-01-10T19:00:50.291Z,2.88
2023-01-10T19:03:18.320Z,3.00
2023-01-10T19:05:44.843Z,4.15
2023-01-10T19:08:13.168Z,5.07
2023-01-10T19:11:03.611Z,3.65
2023-01-10T19:13:29.766Z,2.90
2023-01-10T19:16:08.477Z,4.15
2023-01-10T19:18:35.109Z,5.07
2023-01-10T19:21:01.480Z,2.78
2023-01-10T19:23:27.857Z,2.85
2023-01-10T19:25:57.865Z,3.90
2023-01-10T19:28:24.259Z,3.45
2023-01-10T19:31:03.501Z,3.20
2023-01-10T19:33:31.470Z,3.15
2023-01-10T19:35:57.849Z,2.45
2023-01-10T19:38:24.256Z,3.75
2023-01-10T19:40:52.326Z,3.20
2023-01-10T19:43:19.580Z,2.40
2023-01-10T19:45:45.926Z,3.47
2023-01-10T19:48:12.339Z,2.75
2023-01-10T19:50:38.734Z,2.83
2023-01-10T19:53:05.140Z,2.72
2023-01-10T19:55:32.572Z,2.80
2023-01-10T19:57:59.302Z,3.42
2023-01-10T20:00:26.059Z,3.50
2023-01-10T20:02:52.569Z,3.70
2023-01-10T20:05:19.043Z,3.10
2023-01-10T20:07:49.679Z,2.90
2023-01-10T20:10:16.528Z,2.20
2023-01-10T20:12:43.551Z,2.80
2023-01-10T20:15:10.563Z,3.08
2023-01-10T20:17:37.815Z,2.25
2023-01-10T20:20:04.335Z,2.55
2023-01-10T20:22:30.817Z,3.30
2023-01-10T20:24:58.256Z,3.42
2023-01-10T20:27:24.655Z,2.83
2023-01-10T20:29:51.095Z,2.95
2023-01-10T20:32:19.590Z,2.72
2023-01-10T20:34:47.415Z,2.72
2023-01-10T20:37:14.371Z,2.97
2023-01-10T20:39:40.862Z,2.70
2023-01-10T20:42:07.265Z,2.55
2023-01-10T20:44:34.500Z,2.50
2023-01-10T20:47:01.015Z,2.30
2023-01-10T20:49:27.405Z,3.00
2023-01-10T20:51:54.322Z,2.90
2023-01-10T20:54:20.764Z,2.47
2023-01-10T20:56:47.241Z,2.70
2023-01-10T20:59:13.703Z,2.80
2023-01-10T21:01:40.167Z,2.78
2023-01-10T21:04:08.231Z,2.70
2023-01-10T21:06:36.040Z,3.03
2023-01-10T21:09:04.039Z,3.90
2023-01-10T21:11:30.564Z,3.28
2023-01-10T21:13:56.993Z,2.65
2023-01-10T21:16:24.082Z,3.72
2023-01-10T21:18:52.164Z,3.67
2023-01-10T21:21:22.715Z,2.55
2023-01-10T21:23:49.660Z,2.70
2023-01-10T21:26:16.383Z,2.95
2023-01-10T21:28:48.508Z,3.22
2023-01-10T21:31:20.149Z,2.90
2023-01-10T21:33:49.556Z,4.35
2023-01-10T21:36:16.103Z,6.55
2023-01-10T21:38:42.940Z,3.65
2023-01-10T21:41:13.417Z,2.80
2023-01-10T21:43:44.260Z,2.60
2023-01-10T21:46:11.825Z,3.10
2023-01-10T21:48:38.283Z,3.60
2023-01-10T21:51:04.745Z,2.63
2023-01-10T21:53:31.143Z,2.70
2023-01-10T21:55:59.769Z,2.50
2023-01-10T21:58:26.220Z,3.08
2023-01-10T22:00:58.927Z,2.85
2023-01-10T22:03:25.799Z,2.83
2023-01-10T22:05:52.272Z,3.50
2023-01-10T22:08:18.727Z,2.63
2023-01-10T22:10:45.124Z,3.17
2023-01-10T22:13:11.499Z,2.80
2023-01-10T22:15:37.938Z,2.60
2023-01-10T22:18:04.473Z,3.45
2023-01-10T22:20:30.874Z,2.72
2023-01-10T22:22:57.818Z,2.70
2023-01-10T22:25:24.192Z,3.65
2023-01-10T22:27:50.619Z,2.78
2023-01-10T22:30:17.313Z,3.75
2023-01-10T22:32:43.920Z,2.55
2023-01-10T22:35:13.763Z,2.75
2023-01-10T22:37:41.137Z,2.40
2023-01-10T22:40:08.385Z,2.75
2023-01-10T22:42:34.797Z,2.80
2023-01-10T22:45:01.317Z,2.55
2023-01-10T22:47:27.721Z,2.05
2023-01-10T22:49:54.114Z,2.00
2023-01-10T22:52:20.475Z,2.38
2023-01-10T22:54:46.909Z,2.30
2023-01-10T22:57:14.373Z,2.25
2023-01-10T22:59:40.892Z,3.20
2023-01-10T23:02:07.308Z,2.10
2023-01-10T23:04:33.734Z,2.60
2023-01-10T23:07:03.234Z,4.45
2023-01-10T23:09:29.681Z,3.00
2023-01-10T23:11:56.050Z,2.67
2023-01-10T23:14:23.224Z,2.17
2023-01-10T23:16:49.663Z,2.55
2023-01-10T23:19:16.147Z,3.80
2023-01-10T23:21:42.668Z,3.20
2023-01-10T23:24:09.093Z,2.92
2023-01-10T23:26:35.475Z,2.38
2023-01-10T23:29:01.970Z,2.30
2023-01-10T23:31:29.990Z,2.50
2023-01-10T23:33:56.809Z,5.95
2023-01-10T23:36:24.043Z,3.15
2023-01-10T23:38:50.868Z,2.40
2023-01-10T23:41:21.014Z,1.90
2023-01-10T23:43:51.815Z,2.63
2023-01-10T23:46:20.173Z,2.30
2023-01-10T23:48:49.050Z,2.13
2023-01-10T23:51:15.527Z,2.10
2023-01-10T23:53:42.592Z,2.10
2023-01-10T23:56:11.476Z,1.85
2023-01-10T23:58:39.270Z,2.30
